sensor_id;sensor_type;location;lat;lon;timestamp;P1;durP1;ratioP1;P2;durP2;ratioP2
79755;SDS011;69239;50.678;12.280;2023-12-20T00:02:21;1.48;;;1.05;;
79755;SDS011;69239;50.678;12.280;2023-12-20T00:07:43;1.60;;;1.00;;
79755;SDS011;69239;50.678;12.280;2023-12-20T00:10:14;0.95;;;0.68;;
79755;SDS011;69239;50.678;12.280;2023-12-20T00:12:45;1.27;;;0.70;;
79755;SDS011;69239;50.678;12.280;2023-12-20T00:15:13;1.08;;;0.80;;
79755;SDS011;69239;50.678;12.280;2023-12-20T00:17:49;1.05;;;0.77;;
79755;SDS011;69239;50.678;12.280;2023-12-20T00:20:17;0.68;;;0.63;;
79755;SDS011;69239;50.678;12.280;2023-12-20T00:22:50;0.70;;;0.57;;
79755;SDS011;69239;50.678;12.280;2023-12-20T00:25:25;0.60;;;0.40;;
79755;SDS011;69239;50.678;12.280;2023-12-20T00:27:53;0.30;;;0.30;;
79755;SDS011;69239;50.678;12.280;2023-12-20T00:30:21;0.43;;;0.43;;
79755;SDS011;69239;50.678;12.280;2023-12-20T00:33:29;0.85;;;0.60;;
79755;SDS011;69239;50.678;12.280;2023-12-20T00:36:38;1.85;;;0.70;;
79755;SDS011;69239;50.678;12.280;2023-12-20T00:38:44;1.13;;;0.63;;
79755;SDS011;69239;50.678;12.280;2023-12-20T00:41:17;0.60;;;0.55;;
79755;SDS011;69239;50.678;12.280;2023-12-20T00:43:43;0.68;;;0.47;;
79755;SDS011;69239;50.678;12.280;2023-12-20T00:46:23;1.60;;;0.47;;
79755;SDS011;69239;50.678;12.280;2023-12-20T00:49:11;0.50;;;0.40;;
79755;SDS011;69239;50.678;12.280;2023-12-20T00:51:45;0.45;;;0.43;;
79755;SDS011;69239;50.678;12.280;2023-12-20T00:54:15;1.25;;;0.50;;
79755;SDS011;69239;50.678;12.280;2023-12-20T00:57:10;0.73;;;0.60;;
79755;SDS011;69239;50.678;12.280;2023-12-20T00:59:45;0.80;;;0.50;;
79755;SDS011;69239;50.678;12.280;2023-12-20T01:02:19;0.45;;;0.40;;
79755;SDS011;69239;50.678;12.280;2023-12-20T01:05:09;0.55;;;0.43;;
79755;SDS011;69239;50.678;12.280;2023-12-20T01:07:42;1.90;;;0.50;;
79755;SDS011;69239;50.678;12.280;2023-12-20T01:10:26;0.77;;;0.50;;
79755;SDS011;69239;50.678;12.280;2023-12-20T01:13:23;0.45;;;0.20;;
79755;SDS011;69239;50.678;12.280;2023-12-20T01:18:41;0.50;;;0.30;;
79755;SDS011;69239;50.678;12.280;2023-12-20T01:21:09;0.60;;;0.50;;
79755;SDS011;69239;50.678;12.280;2023-12-20T01:23:51;0.30;;;0.30;;
79755;SDS011;69239;50.678;12.280;2023-12-20T01:26:27;0.65;;;0.47;;
79755;SDS011;69239;50.678;12.280;2023-12-20T01:29:07;0.30;;;0.28;;
79755;SDS011;69239;50.678;12.280;2023-12-20T01:31:43;0.30;;;0.30;;
79755;SDS011;69239;50.678;12.280;2023-12-20T01:34:40;0.20;;;0.20;;
79755;SDS011;69239;50.678;12.280;2023-12-20T01:37:13;0.20;;;0.20;;
79755;SDS011;69239;50.678;12.280;2023-12-20T01:39:49;0.25;;;0.13;;
79755;SDS011;69239;50.678;12.280;2023-12-20T01:42:22;0.20;;;0.20;;
79755;SDS011;69239;50.678;12.280;2023-12-20T01:44:52;0.20;;;0.20;;
79755;SDS011;69239;50.678;12.280;2023-12-20T01:47:17;0.30;;;0.20;;
79755;SDS011;69239;50.678;12.280;2023-12-20T01:49:52;0.10;;;0.10;;
79755;SDS011;69239;50.678;12.280;2023-12-20T01:52:41;0.17;;;0.10;;
79755;SDS011;69239;50.678;12.280;2023-12-20T01:55:10;0.20;;;0.20;;
79755;SDS011;69239;50.678;12.280;2023-12-20T01:58:11;0.15;;;0.15;;
79755;SDS011;69239;50.678;12.280;2023-12-20T02:00:49;0.25;;;0.20;;
79755;SDS011;69239;50.678;12.280;2023-12-20T02:06:34;0.32;;;0.20;;
79755;SDS011;69239;50.678;12.280;2023-12-20T02:09:05;0.20;;;0.10;;
79755;SDS011;69239;50.678;12.280;2023-12-20T02:11:52;0.10;;;0.10;;
79755;SDS011;69239;50.678;12.280;2023-12-20T02:14:17;0.30;;;0.30;;
79755;SDS011;69239;50.678;12.280;2023-12-20T02:20:19;0.10;;;0.10;;
79755;SDS011;69239;50.678;12.280;2023-12-20T02:22:47;0.40;;;0.10;;
79755;SDS011;69239;50.678;12.280;2023-12-20T02:25:16;0.30;;;0.20;;
79755;SDS011;69239;50.678;12.280;2023-12-20T02:28:16;0.30;;;0.22;;
79755;SDS011;69239;50.678;12.280;2023-12-20T02:30:42;0.20;;;0.20;;
79755;SDS011;69239;50.678;12.280;2023-12-20T02:33:10;0.20;;;0.20;;
79755;SDS011;69239;50.678;12.280;2023-12-20T02:35:42;0.10;;;0.00;;
79755;SDS011;69239;50.678;12.280;2023-12-20T02:38:14;0.40;;;0.22;;
79755;SDS011;69239;50.678;12.280;2023-12-20T02:40:58;0.17;;;0.17;;
79755;SDS011;69239;50.678;12.280;2023-12-20T02:43:32;0.17;;;0.17;;
79755;SDS011;69239;50.678;12.280;2023-12-20T02:49:20;3.10;;;0.10;;
79755;SDS011;69239;50.678;12.280;2023-12-20T02:51:58;0.17;;;0.10;;
79755;SDS011;69239;50.678;12.280;2023-12-20T02:54:54;0.22;;;0.20;;
79755;SDS011;69239;50.678;12.280;2023-12-20T02:57:43;0.10;;;0.10;;
79755;SDS011;69239;50.678;12.280;2023-12-20T03:00:31;0.30;;;0.20;;
79755;SDS011;69239;50.678;12.280;2023-12-20T03:06:20;0.20;;;0.10;;
79755;SDS011;69239;50.678;12.280;2023-12-20T03:08:51;0.20;;;0.10;;
79755;SDS011;69239;50.678;12.280;2023-12-20T03:11:27;0.22;;;0.20;;
79755;SDS011;69239;50.678;12.280;2023-12-20T03:13:58;0.98;;;0.03;;
79755;SDS011;69239;50.678;12.280;2023-12-20T03:16:29;0.10;;;0.10;;
79755;SDS011;69239;50.678;12.280;2023-12-20T03:19:05;0.63;;;0.10;;
79755;SDS011;69239;50.678;12.280;2023-12-20T03:21:44;0.10;;;0.10;;
79755;SDS011;69239;50.678;12.280;2023-12-20T03:24:31;0.22;;;0.10;;
79755;SDS011;69239;50.678;12.280;2023-12-20T03:30:25;0.20;;;0.10;;
79755;SDS011;69239;50.678;12.280;2023-12-20T03:33:17;0.10;;;0.10;;
79755;SDS011;69239;50.678;12.280;2023-12-20T03:35:51;0.20;;;0.10;;
79755;SDS011;69239;50.678;12.280;2023-12-20T03:38:27;0.20;;;0.10;;
79755;SDS011;69239;50.678;12.280;2023-12-20T03:41:04;0.10;;;0.10;;
79755;SDS011;69239;50.678;12.280;2023-12-20T03:43:44;0.17;;;0.13;;
79755;SDS011;69239;50.678;12.280;2023-12-20T03:46:36;0.03;;;0.03;;
79755;SDS011;69239;50.678;12.280;2023-12-20T03:49:18;1.20;;;0.20;;
79755;SDS011;69239;50.678;12.280;2023-12-20T03:52:06;0.28;;;0.10;;
79755;SDS011;69239;50.678;12.280;2023-12-20T03:54:42;0.13;;;0.08;;
79755;SDS011;69239;50.678;12.280;2023-12-20T04:00:07;1.13;;;0.22;;
79755;SDS011;69239;50.678;12.280;2023-12-20T04:02:46;0.32;;;0.32;;
79755;SDS011;69239;50.678;12.280;2023-12-20T04:05:17;0.00;;;0.00;;
79755;SDS011;69239;50.678;12.280;2023-12-20T04:07:50;0.10;;;0.10;;
79755;SDS011;69239;50.678;12.280;2023-12-20T04:10:32;0.17;;;0.08;;
79755;SDS011;69239;50.678;12.280;2023-12-20T04:13:21;0.98;;;0.10;;
79755;SDS011;69239;50.678;12.280;2023-12-20T04:15:59;0.17;;;0.15;;
79755;SDS011;69239;50.678;12.280;2023-12-20T04:18:37;0.17;;;0.17;;
79755;SDS011;69239;50.678;12.280;2023-12-20T04:21:05;0.10;;;0.10;;
79755;SDS011;69239;50.678;12.280;2023-12-20T04:23:33;0.30;;;0.10;;
79755;SDS011;69239;50.678;12.280;2023-12-20T04:26:07;0.90;;;0.30;;
79755;SDS011;69239;50.678;12.280;2023-12-20T04:28:35;0.95;;;0.10;;
79755;SDS011;69239;50.678;12.280;2023-12-20T04:31:14;0.25;;;0.08;;
79755;SDS011;69239;50.678;12.280;2023-12-20T04:33:39;0.10;;;0.10;;
79755;SDS011;69239;50.678;12.280;2023-12-20T04:36:04;0.10;;;0.10;;
79755;SDS011;69239;50.678;12.280;2023-12-20T04:38:34;0.38;;;0.08;;
79755;SDS011;69239;50.678;12.280;2023-12-20T04:40:59;0.10;;;0.10;;
79755;SDS011;69239;50.678;12.280;2023-12-20T04:43:25;0.10;;;0.10;;
79755;SDS011;69239;50.678;12.280;2023-12-20T04:45:53;0.17;;;0.17;;
79755;SDS011;69239;50.678;12.280;2023-12-20T04:48:18;0.10;;;0.10;;
79755;SDS011;69239;50.678;12.280;2023-12-20T04:50:44;0.20;;;0.20;;
79755;SDS011;69239;50.678;12.280;2023-12-20T04:53:10;0.00;;;0.00;;
79755;SDS011;69239;50.678;12.280;2023-12-20T04:55:38;0.80;;;0.20;;
79755;SDS011;69239;50.678;12.280;2023-12-20T04:58:10;0.10;;;0.10;;
79755;SDS011;69239;50.678;12.280;2023-12-20T05:00:35;0.20;;;0.20;;
79755;SDS011;69239;50.678;12.280;2023-12-20T05:03:05;1.45;;;0.20;;
79755;SDS011;69239;50.678;12.280;2023-12-20T05:05:37;0.40;;;0.10;;
79755;SDS011;69239;50.678;12.280;2023-12-20T05:08:03;0.38;;;0.10;;
79755;SDS011;69239;50.678;12.280;2023-12-20T05:10:35;0.17;;;0.17;;
79755;SDS011;69239;50.678;12.280;2023-12-20T05:13:01;0.10;;;0.10;;
79755;SDS011;69239;50.678;12.280;2023-12-20T05:15:29;0.32;;;0.17;;
79755;SDS011;69239;50.678;12.280;2023-12-20T05:17:58;0.50;;;0.22;;
79755;SDS011;69239;50.678;12.280;2023-12-20T05:20:26;0.40;;;0.20;;
79755;SDS011;69239;50.678;12.280;2023-12-20T05:23:00;0.30;;;0.28;;
79755;SDS011;69239;50.678;12.280;2023-12-20T05:25:28;0.30;;;0.20;;
79755;SDS011;69239;50.678;12.280;2023-12-20T05:29:55;0.05;;;0.00;;
79755;SDS011;69239;50.678;12.280;2023-12-20T05:32:22;0.25;;;0.10;;
79755;SDS011;69239;50.678;12.280;2023-12-20T05:34:48;0.10;;;0.10;;
79755;SDS011;69239;50.678;12.280;2023-12-20T05:37:13;0.10;;;0.10;;
79755;SDS011;69239;50.678;12.280;2023-12-20T05:39:39;0.20;;;0.10;;
79755;SDS011;69239;50.678;12.280;2023-12-20T05:42:07;0.10;;;0.10;;
79755;SDS011;69239;50.678;12.280;2023-12-20T05:44:33;11.13;;;1.13;;
79755;SDS011;69239;50.678;12.280;2023-12-20T05:46:58;4.43;;;0.30;;
79755;SDS011;69239;50.678;12.280;2023-12-20T05:49:23;0.63;;;0.63;;
79755;SDS011;69239;50.678;12.280;2023-12-20T05:51:56;0.20;;;0.20;;
79755;SDS011;69239;50.678;12.280;2023-12-20T05:54:24;0.43;;;0.20;;
79755;SDS011;69239;50.678;12.280;2023-12-20T05:56:49;0.50;;;0.20;;
79755;SDS011;69239;50.678;12.280;2023-12-20T05:59:15;0.20;;;0.20;;
79755;SDS011;69239;50.678;12.280;2023-12-20T06:01:41;0.65;;;0.20;;
79755;SDS011;69239;50.678;12.280;2023-12-20T06:04:06;0.35;;;0.20;;
79755;SDS011;69239;50.678;12.280;2023-12-20T06:06:32;1.90;;;0.40;;
79755;SDS011;69239;50.678;12.280;2023-12-20T06:08:57;0.30;;;0.20;;
79755;SDS011;69239;50.678;12.280;2023-12-20T06:11:23;0.50;;;0.30;;
79755;SDS011;69239;50.678;12.280;2023-12-20T06:13:48;0.65;;;0.38;;
79755;SDS011;69239;50.678;12.280;2023-12-20T06:16:18;0.20;;;0.20;;
79755;SDS011;69239;50.678;12.280;2023-12-20T06:18:43;0.60;;;0.50;;
79755;SDS011;69239;50.678;12.280;2023-12-20T06:21:11;0.20;;;0.20;;
79755;SDS011;69239;50.678;12.280;2023-12-20T06:23:38;1.00;;;0.50;;
79755;SDS011;69239;50.678;12.280;2023-12-20T06:26:03;0.70;;;0.50;;
79755;SDS011;69239;50.678;12.280;2023-12-20T06:28:29;0.98;;;0.70;;
79755;SDS011;69239;50.678;12.280;2023-12-20T06:30:54;0.60;;;0.40;;
79755;SDS011;69239;50.678;12.280;2023-12-20T06:33:20;0.82;;;0.70;;
79755;SDS011;69239;50.678;12.280;2023-12-20T06:35:47;0.60;;;0.40;;
79755;SDS011;69239;50.678;12.280;2023-12-20T06:38:12;1.92;;;0.50;;
79755;SDS011;69239;50.678;12.280;2023-12-20T06:40:38;0.77;;;0.43;;
79755;SDS011;69239;50.678;12.280;2023-12-20T06:43:03;1.73;;;0.47;;
79755;SDS011;69239;50.678;12.280;2023-12-20T06:45:29;0.57;;;0.50;;
79755;SDS011;69239;50.678;12.280;2023-12-20T06:47:54;1.15;;;0.68;;
79755;SDS011;69239;50.678;12.280;2023-12-20T06:50:23;0.75;;;0.60;;
79755;SDS011;69239;50.678;12.280;2023-12-20T06:52:55;0.70;;;0.50;;
79755;SDS011;69239;50.678;12.280;2023-12-20T06:55:20;0.82;;;0.82;;
79755;SDS011;69239;50.678;12.280;2023-12-20T06:57:55;1.40;;;0.77;;
79755;SDS011;69239;50.678;12.280;2023-12-20T07:00:20;1.35;;;0.70;;
79755;SDS011;69239;50.678;12.280;2023-12-20T07:02:46;1.05;;;0.80;;
79755;SDS011;69239;50.678;12.280;2023-12-20T07:05:12;1.23;;;0.73;;
79755;SDS011;69239;50.678;12.280;2023-12-20T07:07:41;1.05;;;0.60;;
79755;SDS011;69239;50.678;12.280;2023-12-20T07:10:07;1.55;;;1.00;;
79755;SDS011;69239;50.678;12.280;2023-12-20T07:12:33;0.80;;;0.65;;
79755;SDS011;69239;50.678;12.280;2023-12-20T07:14:58;1.02;;;0.88;;
79755;SDS011;69239;50.678;12.280;2023-12-20T07:17:24;1.10;;;0.90;;
79755;SDS011;69239;50.678;12.280;2023-12-20T07:19:50;2.90;;;1.00;;
79755;SDS011;69239;50.678;12.280;2023-12-20T07:22:16;0.82;;;0.73;;
79755;SDS011;69239;50.678;12.280;2023-12-20T07:24:41;1.05;;;0.80;;
79755;SDS011;69239;50.678;12.280;2023-12-20T07:27:07;3.17;;;0.80;;
79755;SDS011;69239;50.678;12.280;2023-12-20T07:29:32;2.13;;;1.20;;
79755;SDS011;69239;50.678;12.280;2023-12-20T07:31:57;1.42;;;1.00;;
79755;SDS011;69239;50.678;12.280;2023-12-20T07:34:23;2.97;;;1.58;;
79755;SDS011;69239;50.678;12.280;2023-12-20T07:36:48;1.33;;;1.23;;
79755;SDS011;69239;50.678;12.280;2023-12-20T07:39:14;1.63;;;1.27;;
79755;SDS011;69239;50.678;12.280;2023-12-20T07:41:39;1.35;;;1.10;;
79755;SDS011;69239;50.678;12.280;2023-12-20T07:44:07;1.50;;;1.15;;
79755;SDS011;69239;50.678;12.280;2023-12-20T07:46:33;1.42;;;1.23;;
79755;SDS011;69239;50.678;12.280;2023-12-20T07:48:58;1.98;;;1.23;;
79755;SDS011;69239;50.678;12.280;2023-12-20T07:51:24;1.77;;;1.20;;
79755;SDS011;69239;50.678;12.280;2023-12-20T07:53:49;1.33;;;1.17;;
79755;SDS011;69239;50.678;12.280;2023-12-20T07:56:17;1.67;;;1.20;;
79755;SDS011;69239;50.678;12.280;2023-12-20T07:58:45;2.53;;;1.05;;
79755;SDS011;69239;50.678;12.280;2023-12-20T08:01:11;1.60;;;1.10;;
79755;SDS011;69239;50.678;12.280;2023-12-20T08:03:37;1.92;;;1.13;;
79755;SDS011;69239;50.678;12.280;2023-12-20T08:06:03;2.30;;;1.35;;
79755;SDS011;69239;50.678;12.280;2023-12-20T08:08:29;1.77;;;0.70;;
79755;SDS011;69239;50.678;12.280;2023-12-20T08:10:55;2.30;;;1.30;;
79755;SDS011;69239;50.678;12.280;2023-12-20T08:13:22;1.23;;;1.13;;
79755;SDS011;69239;50.678;12.280;2023-12-20T08:15:51;1.70;;;0.90;;
79755;SDS011;69239;50.678;12.280;2023-12-20T08:18:17;1.70;;;1.20;;
79755;SDS011;69239;50.678;12.280;2023-12-20T08:20:42;4.32;;;1.05;;
79755;SDS011;69239;50.678;12.280;2023-12-20T08:23:08;1.23;;;1.00;;
79755;SDS011;69239;50.678;12.280;2023-12-20T08:25:36;1.73;;;1.10;;
79755;SDS011;69239;50.678;12.280;2023-12-20T08:28:02;1.65;;;0.88;;
79755;SDS011;69239;50.678;12.280;2023-12-20T08:30:29;1.90;;;0.90;;
79755;SDS011;69239;50.678;12.280;2023-12-20T08:32:56;1.23;;;0.80;;
79755;SDS011;69239;50.678;12.280;2023-12-20T08:35:27;1.35;;;0.80;;
79755;SDS011;69239;50.678;12.280;2023-12-20T08:37:53;1.83;;;1.08;;
79755;SDS011;69239;50.678;12.280;2023-12-20T08:40:21;2.17;;;1.20;;
79755;SDS011;69239;50.678;12.280;2023-12-20T08:42:46;1.25;;;1.00;;
79755;SDS011;69239;50.678;12.280;2023-12-20T08:45:11;2.05;;;0.98;;
79755;SDS011;69239;50.678;12.280;2023-12-20T08:47:43;1.30;;;0.80;;
79755;SDS011;69239;50.678;12.280;2023-12-20T08:50:13;1.73;;;1.00;;
79755;SDS011;69239;50.678;12.280;2023-12-20T08:52:41;0.90;;;0.73;;
79755;SDS011;69239;50.678;12.280;2023-12-20T08:55:09;1.15;;;0.77;;
79755;SDS011;69239;50.678;12.280;2023-12-20T08:57:39;2.08;;;0.80;;
79755;SDS011;69239;50.678;12.280;2023-12-20T09:00:05;1.52;;;0.50;;
79755;SDS011;69239;50.678;12.280;2023-12-20T09:02:32;0.98;;;0.60;;
79755;SDS011;69239;50.678;12.280;2023-12-20T09:05:01;1.20;;;0.50;;
79755;SDS011;69239;50.678;12.280;2023-12-20T09:07:27;1.08;;;0.63;;
79755;SDS011;69239;50.678;12.280;2023-12-20T09:09:55;0.80;;;0.63;;
79755;SDS011;69239;50.678;12.280;2023-12-20T09:12:21;0.70;;;0.55;;
79755;SDS011;69239;50.678;12.280;2023-12-20T09:14:47;1.20;;;0.88;;
79755;SDS011;69239;50.678;12.280;2023-12-20T09:17:14;1.17;;;0.60;;
79755;SDS011;69239;50.678;12.280;2023-12-20T09:19:41;0.93;;;0.63;;
79755;SDS011;69239;50.678;12.280;2023-12-20T09:22:08;1.83;;;0.90;;
79755;SDS011;69239;50.678;12.280;2023-12-20T09:24:34;2.08;;;0.90;;
79755;SDS011;69239;50.678;12.280;2023-12-20T09:26:59;0.60;;;0.60;;
79755;SDS011;69239;50.678;12.280;2023-12-20T09:29:25;0.90;;;0.65;;
79755;SDS011;69239;50.678;12.280;2023-12-20T09:31:50;2.28;;;1.00;;
79755;SDS011;69239;50.678;12.280;2023-12-20T09:34:16;2.05;;;1.00;;
79755;SDS011;69239;50.678;12.280;2023-12-20T09:36:42;2.20;;;1.10;;
79755;SDS011;69239;50.678;12.280;2023-12-20T09:39:14;1.42;;;1.17;;
79755;SDS011;69239;50.678;12.280;2023-12-20T09:41:45;1.10;;;1.00;;
79755;SDS011;69239;50.678;12.280;2023-12-20T09:44:15;3.10;;;1.20;;
79755;SDS011;69239;50.678;12.280;2023-12-20T09:46:44;2.50;;;1.30;;
79755;SDS011;69239;50.678;12.280;2023-12-20T09:49:30;1.58;;;1.00;;
79755;SDS011;69239;50.678;12.280;2023-12-20T09:51:58;2.28;;;1.40;;
79755;SDS011;69239;50.678;12.280;2023-12-20T09:54:25;2.85;;;1.30;;
79755;SDS011;69239;50.678;12.280;2023-12-20T09:56:52;2.50;;;1.30;;
79755;SDS011;69239;50.678;12.280;2023-12-20T09:59:17;1.92;;;1.40;;
79755;SDS011;69239;50.678;12.280;2023-12-20T10:01:43;1.38;;;1.23;;
79755;SDS011;69239;50.678;12.280;2023-12-20T10:04:12;2.22;;;1.20;;
79755;SDS011;69239;50.678;12.280;2023-12-20T10:06:42;1.50;;;1.35;;
79755;SDS011;69239;50.678;12.280;2023-12-20T10:09:08;3.00;;;1.40;;
79755;SDS011;69239;50.678;12.280;2023-12-20T10:11:35;2.85;;;1.40;;
79755;SDS011;69239;50.678;12.280;2023-12-20T10:14:02;2.90;;;1.38;;
79755;SDS011;69239;50.678;12.280;2023-12-20T10:16:28;2.30;;;1.45;;
79755;SDS011;69239;50.678;12.280;2023-12-20T10:18:54;3.15;;;1.20;;
79755;SDS011;69239;50.678;12.280;2023-12-20T10:21:20;1.55;;;1.25;;
79755;SDS011;69239;50.678;12.280;2023-12-20T10:23:51;3.85;;;1.30;;
79755;SDS011;69239;50.678;12.280;2023-12-20T10:26:21;3.10;;;1.42;;
79755;SDS011;69239;50.678;12.280;2023-12-20T10:28:59;2.42;;;1.38;;
79755;SDS011;69239;50.678;12.280;2023-12-20T10:31:29;2.38;;;1.60;;
79755;SDS011;69239;50.678;12.280;2023-12-20T10:33:56;4.22;;;1.30;;
79755;SDS011;69239;50.678;12.280;2023-12-20T10:36:24;2.17;;;1.35;;
79755;SDS011;69239;50.678;12.280;2023-12-20T10:38:52;5.43;;;1.55;;
79755;SDS011;69239;50.678;12.280;2023-12-20T10:41:24;2.40;;;1.50;;
79755;SDS011;69239;50.678;12.280;2023-12-20T10:44:02;4.50;;;1.52;;
79755;SDS011;69239;50.678;12.280;2023-12-20T10:46:30;3.38;;;1.75;;
79755;SDS011;69239;50.678;12.280;2023-12-20T10:48:56;2.90;;;1.08;;
79755;SDS011;69239;50.678;12.280;2023-12-20T10:51:22;1.67;;;1.05;;
79755;SDS011;69239;50.678;12.280;2023-12-20T10:53:52;2.67;;;1.10;;
79755;SDS011;69239;50.678;12.280;2023-12-20T10:56:19;2.63;;;1.02;;
79755;SDS011;69239;50.678;12.280;2023-12-20T10:58:47;1.70;;;0.80;;
79755;SDS011;69239;50.678;12.280;2023-12-20T11:01:14;2.95;;;1.13;;
79755;SDS011;69239;50.678;12.280;2023-12-20T11:03:43;1.38;;;0.63;;
79755;SDS011;69239;50.678;12.280;2023-12-20T11:14:20;3.28;;;0.90;;
79755;SDS011;69239;50.678;12.280;2023-12-20T11:16:50;1.98;;;0.88;;
79755;SDS011;69239;50.678;12.280;2023-12-20T11:19:16;2.67;;;1.10;;
79755;SDS011;69239;50.678;12.280;2023-12-20T11:21:42;1.48;;;0.70;;
79755;SDS011;69239;50.678;12.280;2023-12-20T11:24:07;3.33;;;1.27;;
79755;SDS011;69239;50.678;12.280;2023-12-20T11:26:36;2.10;;;1.02;;
79755;SDS011;69239;50.678;12.280;2023-12-20T11:32:00;2.05;;;0.80;;
79755;SDS011;69239;50.678;12.280;2023-12-20T11:34:27;2.10;;;0.90;;
79755;SDS011;69239;50.678;12.280;2023-12-20T11:36:59;3.03;;;1.00;;
79755;SDS011;69239;50.678;12.280;2023-12-20T11:39:27;4.85;;;0.88;;
79755;SDS011;69239;50.678;12.280;2023-12-20T11:41:56;2.65;;;0.82;;
79755;SDS011;69239;50.678;12.280;2023-12-20T11:44:22;1.27;;;0.60;;
79755;SDS011;69239;50.678;12.280;2023-12-20T11:46:50;1.67;;;0.95;;
79755;SDS011;69239;50.678;12.280;2023-12-20T11:49:16;2.20;;;0.85;;
79755;SDS011;69239;50.678;12.280;2023-12-20T11:51:42;3.15;;;1.15;;
79755;SDS011;69239;50.678;12.280;2023-12-20T11:54:08;1.63;;;0.90;;
79755;SDS011;69239;50.678;12.280;2023-12-20T11:56:38;3.08;;;0.88;;
79755;SDS011;69239;50.678;12.280;2023-12-20T11:59:04;2.38;;;0.85;;
79755;SDS011;69239;50.678;12.280;2023-12-20T12:01:31;5.35;;;0.57;;
79755;SDS011;69239;50.678;12.280;2023-12-20T12:04:03;2.25;;;0.75;;
79755;SDS011;69239;50.678;12.280;2023-12-20T12:06:29;1.30;;;0.80;;
79755;SDS011;69239;50.678;12.280;2023-12-20T12:08:54;2.63;;;0.90;;
79755;SDS011;69239;50.678;12.280;2023-12-20T12:11:20;2.88;;;0.80;;
79755;SDS011;69239;50.678;12.280;2023-12-20T12:13:46;3.03;;;0.73;;
79755;SDS011;69239;50.678;12.280;2023-12-20T12:16:12;3.28;;;0.90;;
79755;SDS011;69239;50.678;12.280;2023-12-20T12:18:44;2.63;;;1.00;;
79755;SDS011;69239;50.678;12.280;2023-12-20T12:21:10;1.55;;;0.65;;
79755;SDS011;69239;50.678;12.280;2023-12-20T12:23:43;2.15;;;0.70;;
79755;SDS011;69239;50.678;12.280;2023-12-20T12:26:09;1.08;;;0.80;;
79755;SDS011;69239;50.678;12.280;2023-12-20T12:28:34;4.28;;;1.20;;
79755;SDS011;69239;50.678;12.280;2023-12-20T12:31:00;1.90;;;1.00;;
79755;SDS011;69239;50.678;12.280;2023-12-20T12:33:25;1.85;;;1.20;;
79755;SDS011;69239;50.678;12.280;2023-12-20T12:35:51;0.95;;;0.90;;
79755;SDS011;69239;50.678;12.280;2023-12-20T12:38:19;3.70;;;0.90;;
79755;SDS011;69239;50.678;12.280;2023-12-20T12:40:46;2.25;;;1.10;;
79755;SDS011;69239;50.678;12.280;2023-12-20T12:43:12;11.32;;;0.82;;
79755;SDS011;69239;50.678;12.280;2023-12-20T12:45:38;3.10;;;1.02;;
79755;SDS011;69239;50.678;12.280;2023-12-20T12:48:03;1.63;;;0.90;;
79755;SDS011;69239;50.678;12.280;2023-12-20T12:50:30;1.90;;;0.70;;
79755;SDS011;69239;50.678;12.280;2023-12-20T12:53:02;4.80;;;1.10;;
79755;SDS011;69239;50.678;12.280;2023-12-20T12:55:30;3.30;;;1.02;;
79755;SDS011;69239;50.678;12.280;2023-12-20T12:57:58;1.95;;;0.93;;
79755;SDS011;69239;50.678;12.280;2023-12-20T13:00:23;3.30;;;0.90;;
79755;SDS011;69239;50.678;12.280;2023-12-20T13:02:49;4.00;;;1.10;;
79755;SDS011;69239;50.678;12.280;2023-12-20T13:05:16;3.33;;;1.10;;
79755;SDS011;69239;50.678;12.280;2023-12-20T13:07:42;1.40;;;0.98;;
79755;SDS011;69239;50.678;12.280;2023-12-20T13:10:10;2.95;;;1.15;;
79755;SDS011;69239;50.678;12.280;2023-12-20T13:12:36;1.88;;;1.10;;
79755;SDS011;69239;50.678;12.280;2023-12-20T13:15:01;1.92;;;1.10;;
79755;SDS011;69239;50.678;12.280;2023-12-20T13:17:29;1.60;;;1.08;;
79755;SDS011;69239;50.678;12.280;2023-12-20T13:19:54;2.30;;;1.02;;
79755;SDS011;69239;50.678;12.280;2023-12-20T13:22:20;4.10;;;0.85;;
79755;SDS011;69239;50.678;12.280;2023-12-20T13:24:45;1.30;;;0.60;;
79755;SDS011;69239;50.678;12.280;2023-12-20T13:27:11;3.25;;;0.73;;
79755;SDS011;69239;50.678;12.280;2023-12-20T13:29:36;2.85;;;0.82;;
79755;SDS011;69239;50.678;12.280;2023-12-20T13:32:02;3.78;;;0.80;;
79755;SDS011;69239;50.678;12.280;2023-12-20T13:34:28;3.20;;;0.65;;
79755;SDS011;69239;50.678;12.280;2023-12-20T13:36:54;2.03;;;0.73;;
79755;SDS011;69239;50.678;12.280;2023-12-20T13:39:20;2.30;;;0.75;;
79755;SDS011;69239;50.678;12.280;2023-12-20T13:41:46;1.33;;;0.80;;
79755;SDS011;69239;50.678;12.280;2023-12-20T13:44:12;2.38;;;0.93;;
79755;SDS011;69239;50.678;12.280;2023-12-20T13:46:37;4.03;;;0.90;;
79755;SDS011;69239;50.678;12.280;2023-12-20T13:49:03;1.70;;;0.75;;
79755;SDS011;69239;50.678;12.280;2023-12-20T13:51:28;2.08;;;0.60;;
79755;SDS011;69239;50.678;12.280;2023-12-20T13:53:53;2.63;;;0.98;;
79755;SDS011;69239;50.678;12.280;2023-12-20T13:56:19;2.67;;;1.47;;
79755;SDS011;69239;50.678;12.280;2023-12-20T13:58:45;3.38;;;1.13;;
79755;SDS011;69239;50.678;12.280;2023-12-20T14:01:12;2.88;;;1.33;;
79755;SDS011;69239;50.678;12.280;2023-12-20T14:03:37;1.08;;;0.70;;
79755;SDS011;69239;50.678;12.280;2023-12-20T14:06:02;2.45;;;0.90;;
79755;SDS011;69239;50.678;12.280;2023-12-20T14:08:28;2.08;;;1.10;;
79755;SDS011;69239;50.678;12.280;2023-12-20T14:10:54;2.70;;;0.90;;
79755;SDS011;69239;50.678;12.280;2023-12-20T14:13:19;2.80;;;1.17;;
79755;SDS011;69239;50.678;12.280;2023-12-20T14:15:46;2.35;;;1.00;;
79755;SDS011;69239;50.678;12.280;2023-12-20T14:18:12;1.10;;;0.65;;
79755;SDS011;69239;50.678;12.280;2023-12-20T14:20:39;2.80;;;0.70;;
79755;SDS011;69239;50.678;12.280;2023-12-20T14:23:08;2.25;;;0.80;;
79755;SDS011;69239;50.678;12.280;2023-12-20T14:25:36;2.60;;;0.95;;
79755;SDS011;69239;50.678;12.280;2023-12-20T14:28:02;1.73;;;1.08;;
79755;SDS011;69239;50.678;12.280;2023-12-20T14:30:29;1.90;;;0.70;;
79755;SDS011;69239;50.678;12.280;2023-12-20T14:32:54;2.70;;;1.02;;
79755;SDS011;69239;50.678;12.280;2023-12-20T14:35:19;1.48;;;1.00;;
79755;SDS011;69239;50.678;12.280;2023-12-20T14:37:45;1.97;;;1.10;;
79755;SDS011;69239;50.678;12.280;2023-12-20T14:40:10;2.28;;;1.02;;
79755;SDS011;69239;50.678;12.280;2023-12-20T14:42:43;3.67;;;1.00;;
79755;SDS011;69239;50.678;12.280;2023-12-20T14:45:09;2.35;;;1.00;;
79755;SDS011;69239;50.678;12.280;2023-12-20T14:47:35;2.25;;;1.15;;
79755;SDS011;69239;50.678;12.280;2023-12-20T14:50:03;2.60;;;1.27;;
79755;SDS011;69239;50.678;12.280;2023-12-20T14:52:30;2.85;;;1.13;;
79755;SDS011;69239;50.678;12.280;2023-12-20T14:54:55;2.30;;;1.50;;
79755;SDS011;69239;50.678;12.280;2023-12-20T14:57:21;3.47;;;1.50;;
79755;SDS011;69239;50.678;12.280;2023-12-20T14:59:46;3.65;;;2.15;;
79755;SDS011;69239;50.678;12.280;2023-12-20T15:02:11;8.27;;;2.92;;
79755;SDS011;69239;50.678;12.280;2023-12-20T15:04:37;5.03;;;3.08;;
79755;SDS011;69239;50.678;12.280;2023-12-20T15:07:02;1.53;;;1.13;;
79755;SDS011;69239;50.678;12.280;2023-12-20T15:09:30;4.10;;;1.95;;
79755;SDS011;69239;50.678;12.280;2023-12-20T15:11:55;3.42;;;1.58;;
79755;SDS011;69239;50.678;12.280;2023-12-20T15:14:21;2.25;;;1.10;;
79755;SDS011;69239;50.678;12.280;2023-12-20T15:16:46;1.73;;;0.85;;
79755;SDS011;69239;50.678;12.280;2023-12-20T15:19:14;2.20;;;1.10;;
79755;SDS011;69239;50.678;12.280;2023-12-20T15:21:41;2.13;;;1.20;;
79755;SDS011;69239;50.678;12.280;2023-12-20T15:24:10;2.10;;;0.98;;
79755;SDS011;69239;50.678;12.280;2023-12-20T15:26:44;1.95;;;0.80;;